createdAt,value
2019-01-04T00:01:29.568Z,67.07
2019-01-04T00:04:01.424Z,67.03
2019-01-04T00:06:30.037Z,67.17
2019-01-04T00:08:58.618Z,67.08
2019-01-04T00:11:26.845Z,66.87
2019-01-04T00:13:55.299Z,67.08
2019-01-04T00:16:25.051Z,67.20
2019-01-04T00:18:53.950Z,67.16
2019-01-04T00:21:22.236Z,67.23
2019-01-04T00:23:50.288Z,67.28
2019-01-04T00:26:19.573Z,67.38
2019-01-04T00:28:48.329Z,67.51
2019-01-04T00:31:17.259Z,67.35
2019-01-04T00:33:45.653Z,67.34
2019-01-04T00:36:14.622Z,67.34
2019-01-04T00:38:42.961Z,67.43
2019-01-04T00:41:11.191Z,67.49
2019-01-04T00:43:39.751Z,67.41
2019-01-04T00:46:09.423Z,67.39
2019-01-04T00:48:37.614Z,67.30
2019-01-04T00:51:05.897Z,67.25
2019-01-04T00:53:33.878Z,67.30
2019-01-04T00:56:56.790Z,67.25
2019-01-04T01:00:11.903Z,67.24
2019-01-04T01:03:23.520Z,67.34
2019-01-04T01:06:27.021Z,67.32
2019-01-04T01:09:48.675Z,67.29
2019-01-04T01:13:05.672Z,67.19
2019-01-04T01:16:24.357Z,67.01
2019-01-04T01:19:21.367Z,67.10
2019-01-04T01:22:45.932Z,67.14
2019-01-04T01:25:49.485Z,67.06
2019-01-04T01:28:55.578Z,67.16
2019-01-04T01:31:58.960Z,67.04
2019-01-04T01:35:13.979Z,67.01
2019-01-04T01:38:19.055Z,66.77
2019-01-04T01:41:34.503Z,66.75
2019-01-04T01:44:42.007Z,66.74
2019-01-04T01:47:32.814Z,66.58
2019-01-04T01:50:28.845Z,66.33
2019-01-04T01:52:57.169Z,66.41
2019-01-04T01:55:25.246Z,66.35
2019-01-04T01:57:53.415Z,66.04
2019-01-04T02:00:21.567Z,65.79
2019-01-04T02:02:49.684Z,65.86
2019-01-04T02:05:17.735Z,65.92
2019-01-04T02:07:46.186Z,65.80
2019-01-04T02:10:14.294Z,65.61
2019-01-04T02:12:42.598Z,65.45
2019-01-04T02:15:10.887Z,65.49
2019-01-04T02:17:38.740Z,65.39
2019-01-04T02:20:07.193Z,65.32
2019-01-04T02:22:35.451Z,65.25
2019-01-04T02:25:03.600Z,65.14
2019-01-04T02:27:31.882Z,65.18
2019-01-04T02:30:00.127Z,65.17
2019-01-04T02:32:28.023Z,65.18
2019-01-04T02:34:56.320Z,65.07
2019-01-04T02:37:28.845Z,65.00
2019-01-04T02:39:56.967Z,65.04
2019-01-04T02:42:25.110Z,64.87
2019-01-04T02:44:53.813Z,64.77
2019-01-04T02:47:22.105Z,64.71
2019-01-04T02:49:49.982Z,64.62
2019-01-04T02:52:18.661Z,64.62
2019-01-04T02:54:46.496Z,64.54
2019-01-04T02:57:15.692Z,64.30
2019-01-04T02:59:44.187Z,64.43
2019-01-04T03:02:12.038Z,64.50
2019-01-04T03:04:40.072Z,64.62
2019-01-04T03:07:08.188Z,64.73
2019-01-04T03:09:36.234Z,64.83
2019-01-04T03:12:04.713Z,64.89
2019-01-04T03:14:33.223Z,65.06
2019-01-04T03:17:01.240Z,65.17
2019-01-04T03:19:29.850Z,65.21
2019-01-04T03:21:58.204Z,65.31
2019-01-04T03:24:26.134Z,65.31
2019-01-04T03:26:54.042Z,65.34
2019-01-04T03:29:22.376Z,65.33
2019-01-04T03:31:50.501Z,65.69
2019-01-04T03:34:18.770Z,65.78
2019-01-04T03:36:46.865Z,65.91
2019-01-04T03:39:15.236Z,66.30
2019-01-04T03:41:43.610Z,66.48
2019-01-04T03:44:11.506Z,66.70
2019-01-04T03:46:39.444Z,66.77
2019-01-04T03:49:08.599Z,66.89
2019-01-04T03:51:36.647Z,66.94
2019-01-04T03:54:05.092Z,66.85
2019-01-04T03:56:33.007Z,66.74
2019-01-04T03:59:01.027Z,66.86
2019-01-04T04:01:29.031Z,66.87
2019-01-04T04:03:57.059Z,66.75
2019-01-04T04:06:25.504Z,66.84
2019-01-04T04:08:53.900Z,66.99
2019-01-04T04:11:22.429Z,67.00
2019-01-04T04:13:51.173Z,67.08
2019-01-04T04:16:20.054Z,67.18
2019-01-04T04:18:48.257Z,67.28
2019-01-04T04:21:16.415Z,67.51
2019-01-04T04:23:44.555Z,67.57
2019-01-04T04:26:12.886Z,67.58
2019-01-04T04:28:41.584Z,67.51
2019-01-04T04:31:09.540Z,67.58
2019-01-04T04:33:38.187Z,67.70
2019-01-04T04:36:06.283Z,67.87
2019-01-04T04:38:34.701Z,68.02
2019-01-04T04:41:02.943Z,68.06
2019-01-04T04:43:30.876Z,68.31
2019-01-04T04:45:58.768Z,68.38
2019-01-04T04:48:26.987Z,68.49
2019-01-04T04:50:54.997Z,68.54
2019-01-04T04:53:23.138Z,68.63
2019-01-04T04:55:51.769Z,68.61
2019-01-04T04:58:19.807Z,68.80
2019-01-04T05:00:48.241Z,69.20
2019-01-04T05:03:16.423Z,69.06
2019-01-04T05:05:45.661Z,68.97
2019-01-04T05:08:13.878Z,68.92
2019-01-04T05:10:43.037Z,68.94
2019-01-04T05:13:11.609Z,68.97
2019-01-04T05:15:39.827Z,68.78
2019-01-04T05:18:15.516Z,68.65
2019-01-04T05:20:43.763Z,68.62
2019-01-04T05:23:11.646Z,68.46
2019-01-04T05:25:39.784Z,68.35
2019-01-04T05:28:07.836Z,68.17
2019-01-04T05:30:37.045Z,68.12
2019-01-04T05:33:05.289Z,68.07
2019-01-04T05:35:33.529Z,68.01
2019-01-04T05:38:01.837Z,67.74
2019-01-04T05:40:29.999Z,67.67
2019-01-04T05:42:58.119Z,67.56
2019-01-04T05:45:25.932Z,67.32
2019-01-04T05:47:54.298Z,67.11
2019-01-04T05:50:22.332Z,67.25
2019-01-04T05:52:50.456Z,67.17
2019-01-04T05:55:19.009Z,66.98
2019-01-04T05:57:46.934Z,66.75
2019-01-04T06:00:15.109Z,66.61
2019-01-04T06:02:43.685Z,66.55
2019-01-04T06:05:11.641Z,66.44
2019-01-04T06:07:39.961Z,66.39
2019-01-04T06:10:08.437Z,66.34
2019-01-04T06:12:36.488Z,66.32
2019-01-04T06:15:07.804Z,66.23
2019-01-04T06:17:36.087Z,66.04
2019-01-04T06:20:04.489Z,66.00
2019-01-04T06:22:32.501Z,65.87
2019-01-04T06:25:00.896Z,65.68
2019-01-04T06:27:28.899Z,65.62
2019-01-04T06:29:56.888Z,65.81
2019-01-04T06:32:25.392Z,65.78
2019-01-04T06:34:53.449Z,65.72
2019-01-04T06:37:21.368Z,65.86
2019-01-04T06:39:49.417Z,66.00
2019-01-04T06:42:17.233Z,66.13
2019-01-04T06:44:45.333Z,66.23
2019-01-04T06:47:15.238Z,66.34
2019-01-04T06:49:43.270Z,66.43
2019-01-04T06:52:11.450Z,66.50
2019-01-04T06:55:15.612Z,66.71
2019-01-04T06:57:43.640Z,66.76
2019-01-04T07:00:11.940Z,66.74
2019-01-04T07:02:40.239Z,66.78
2019-01-04T07:05:08.470Z,66.87
2019-01-04T07:07:36.483Z,66.97
2019-01-04T07:10:04.714Z,67.23
2019-01-04T07:12:32.734Z,67.22
2019-01-04T07:15:01.057Z,67.22
2019-01-04T07:17:29.089Z,67.30
2019-01-04T07:19:57.020Z,67.32
2019-01-04T07:22:25.558Z,67.13
2019-01-04T07:24:53.634Z,66.98
2019-01-04T07:27:23.344Z,66.98
2019-01-04T07:29:52.531Z,66.82
2019-01-04T07:32:20.732Z,66.85
2019-01-04T07:34:48.644Z,66.86
2019-01-04T07:37:17.174Z,66.94
2019-01-04T07:39:45.581Z,66.87
2019-01-04T07:42:13.850Z,66.76
2019-01-04T07:44:41.909Z,66.89
2019-01-04T07:47:09.932Z,66.81
2019-01-04T07:49:38.482Z,66.83
2019-01-04T07:52:06.718Z,66.89
2019-01-04T07:54:34.895Z,67.04
2019-01-04T07:57:02.885Z,67.22
2019-01-04T07:59:32.150Z,67.23
2019-01-04T08:02:02.165Z,67.31
2019-01-04T08:04:30.290Z,67.46
2019-01-04T08:07:01.819Z,67.47
2019-01-04T08:09:30.150Z,67.40
2019-01-04T08:11:59.516Z,67.43
2019-01-04T08:14:27.676Z,67.51
2019-01-04T08:16:56.607Z,67.59
2019-01-04T08:19:25.677Z,67.63
2019-01-04T08:21:56.419Z,67.64
2019-01-04T08:24:27.831Z,67.75
2019-01-04T08:26:56.103Z,67.88
2019-01-04T08:29:24.085Z,68.02
2019-01-04T08:31:52.555Z,68.30
2019-01-04T08:34:20.987Z,68.28
2019-01-04T08:36:49.379Z,68.42
2019-01-04T08:39:17.774Z,68.43
2019-01-04T08:41:46.098Z,68.91
2019-01-04T08:44:14.586Z,69.24
2019-01-04T08:46:42.487Z,69.33
2019-01-04T08:49:10.477Z,69.44
2019-01-04T08:51:40.789Z,69.78
2019-01-04T08:54:11.498Z,69.95
2019-01-04T08:56:39.690Z,69.67
2019-01-04T08:59:10.114Z,69.73
2019-01-04T09:01:39.979Z,69.53
2019-01-04T09:04:09.077Z,69.14
2019-01-04T09:06:37.423Z,69.02
2019-01-04T09:09:08.055Z,69.03
2019-01-04T09:11:37.458Z,68.93
2019-01-04T09:14:06.117Z,68.75
2019-01-04T09:16:34.720Z,68.50
2019-01-04T09:19:04.126Z,68.59
2019-01-04T09:21:32.510Z,68.01
2019-01-04T09:24:00.672Z,67.62
2019-01-04T09:26:30.213Z,67.32
2019-01-04T09:28:58.382Z,67.03
2019-01-04T09:31:27.475Z,66.86
2019-01-04T09:33:55.507Z,66.61
2019-01-04T09:36:23.618Z,66.24
2019-01-04T09:38:54.226Z,65.89
2019-01-04T09:41:33.668Z,65.69
2019-01-04T09:44:02.646Z,65.78
2019-01-04T09:46:31.211Z,65.86
2019-01-04T09:48:59.598Z,65.86
2019-01-04T09:51:28.588Z,66.42
2019-01-04T09:53:56.888Z,66.35
2019-01-04T09:56:25.166Z,66.08
2019-01-04T09:58:53.704Z,65.87
2019-01-04T10:01:22.778Z,65.52
2019-01-04T10:03:51.108Z,65.31
2019-01-04T10:06:19.495Z,65.15
2019-01-04T10:08:47.843Z,64.73
2019-01-04T10:11:15.950Z,65.23
2019-01-04T10:13:44.298Z,65.13
2019-01-04T10:16:12.368Z,64.67
2019-01-04T10:18:40.804Z,64.75
2019-01-04T10:21:09.503Z,64.65
2019-01-04T10:23:37.485Z,64.90
2019-01-04T10:26:06.195Z,65.15
2019-01-04T10:28:34.173Z,65.34
2019-01-04T10:31:03.535Z,65.86
2019-01-04T10:33:31.919Z,65.62
2019-01-04T10:36:05.641Z,65.26
2019-01-04T10:38:34.068Z,65.09
2019-01-04T10:41:03.970Z,65.29
2019-01-04T10:43:33.921Z,65.18
2019-01-04T10:46:02.806Z,65.28
2019-01-04T10:48:31.287Z,65.64
2019-01-04T10:51:00.802Z,65.71
2019-01-04T10:53:29.167Z,65.63
2019-01-04T10:55:58.392Z,65.61
2019-01-04T10:58:29.202Z,65.92
2019-01-04T11:00:57.354Z,66.10
2019-01-04T11:03:25.870Z,65.90
2019-01-04T11:05:58.301Z,65.96
2019-01-04T11:08:26.832Z,66.06
2019-01-04T11:10:56.098Z,66.21
2019-01-04T11:13:24.160Z,65.95
2019-01-04T11:15:57.023Z,65.59
2019-01-04T11:18:25.617Z,65.20
2019-01-04T11:20:54.632Z,65.21
2019-01-04T11:24:18.277Z,65.40
2019-01-04T11:27:04.701Z,65.68
2019-01-04T11:30:10.104Z,65.61
2019-01-04T11:32:50.931Z,65.82
2019-01-04T11:35:42.780Z,65.76
2019-01-04T11:38:38.820Z,65.75
2019-01-04T11:41:53.182Z,66.51
2019-01-04T11:44:58.574Z,67.11
2019-01-04T11:48:04.973Z,67.68
2019-01-04T11:50:59.857Z,68.33
2019-01-04T11:53:29.888Z,68.61
2019-01-04T11:55:58.275Z,68.99
2019-01-04T11:58:26.189Z,69.10
2019-01-04T12:00:54.692Z,69.05
2019-01-04T12:03:23.784Z,69.01
2019-01-04T12:05:52.088Z,69.17
2019-01-04T12:08:25.124Z,68.92
2019-01-04T12:10:53.588Z,69.09
2019-01-04T12:13:22.117Z,69.16
2019-01-04T12:15:55.463Z,69.83
2019-01-04T12:18:24.765Z,70.19
2019-01-04T12:20:53.128Z,70.38
2019-01-04T12:23:21.078Z,70.85
2019-01-04T12:25:50.580Z,71.05
2019-01-04T12:28:20.103Z,71.56
2019-01-04T12:30:48.429Z,71.83
2019-01-04T12:33:16.948Z,72.01
2019-01-04T12:35:45.556Z,71.92
2019-01-04T12:38:15.459Z,71.84
2019-01-04T12:40:46.450Z,71.79
2019-01-04T12:43:15.730Z,71.41
2019-01-04T12:45:46.326Z,71.25
2019-01-04T12:48:21.997Z,71.18
2019-01-04T12:50:52.925Z,71.07
2019-01-04T12:53:25.277Z,70.84
2019-01-04T12:55:54.107Z,70.69
2019-01-04T12:58:26.597Z,70.62
2019-01-04T13:00:57.675Z,70.32
2019-01-04T13:03:30.381Z,70.48
2019-01-04T13:06:05.338Z,70.91
2019-01-04T13:08:33.982Z,70.86
2019-01-04T13:11:03.043Z,70.75
2019-01-04T13:13:31.740Z,71.28
2019-01-04T13:16:03.974Z,71.19
2019-01-04T13:18:33.434Z,71.01
2019-01-04T13:21:03.926Z,71.10
2019-01-04T13:23:32.511Z,71.54
2019-01-04T13:26:01.758Z,71.74
2019-01-04T13:28:30.379Z,71.89
2019-01-04T13:31:02.219Z,72.16
2019-01-04T13:33:32.862Z,72.44
2019-01-04T13:36:04.861Z,72.82
2019-01-04T13:38:33.247Z,73.17
2019-01-04T13:41:06.533Z,73.29
2019-01-04T13:43:35.569Z,73.13
2019-01-04T13:46:04.213Z,73.18
2019-01-04T13:48:32.284Z,73.30
2019-01-04T13:51:02.617Z,73.26
2019-01-04T13:53:33.638Z,72.89
2019-01-04T13:56:03.089Z,72.72
2019-01-04T13:58:31.339Z,73.01
2019-01-04T14:01:00.018Z,73.00
2019-01-04T14:03:34.415Z,73.05
2019-01-04T14:06:03.054Z,73.14
2019-01-04T14:08:32.878Z,73.33
2019-01-04T14:11:05.846Z,73.05
2019-01-04T14:13:34.198Z,73.03
2019-01-04T14:16:03.321Z,73.36
2019-01-04T14:18:32.063Z,73.49
2019-01-04T14:21:00.281Z,73.57
2019-01-04T14:23:28.953Z,73.12
2019-01-04T14:25:57.422Z,72.98
2019-01-04T14:28:26.092Z,73.16
2019-01-04T14:30:54.262Z,73.07
2019-01-04T14:33:25.188Z,72.94
2019-01-04T14:35:53.812Z,73.08
2019-01-04T14:38:22.138Z,72.94
2019-01-04T14:40:50.340Z,72.96
2019-01-04T14:43:18.773Z,72.91
2019-01-04T14:45:49.121Z,72.76
2019-01-04T14:48:16.932Z,73.03
2019-01-04T14:50:45.051Z,73.26
2019-01-04T14:53:13.156Z,73.27
2019-01-04T14:55:41.251Z,73.33
2019-01-04T14:58:10.376Z,73.32
2019-01-04T15:00:38.505Z,73.30
2019-01-04T15:03:06.977Z,73.37
2019-01-04T15:05:36.912Z,73.31
2019-01-04T15:08:05.563Z,73.59
2019-01-04T15:10:34.248Z,73.83
2019-01-04T15:13:02.818Z,73.71
2019-01-04T15:15:35.082Z,74.00
2019-01-04T15:18:09.821Z,73.91
2019-01-04T15:20:38.965Z,73.71
2019-01-04T15:23:07.740Z,73.71
2019-01-04T15:25:38.126Z,73.69
2019-01-04T15:28:06.337Z,73.88
2019-01-04T15:30:34.839Z,73.75
2019-01-04T15:33:03.388Z,73.48
2019-01-04T15:35:31.642Z,73.52
2019-01-04T15:38:00.056Z,73.82
2019-01-04T15:40:29.071Z,74.32
2019-01-04T15:42:57.084Z,74.41
2019-01-04T15:45:25.770Z,74.69
2019-01-04T15:47:53.887Z,74.60
2019-01-04T15:50:22.378Z,74.63
2019-01-04T15:52:50.638Z,74.92
2019-01-04T15:55:20.001Z,74.84
2019-01-04T15:57:48.660Z,74.90
2019-01-04T16:00:16.969Z,74.89
2019-01-04T16:02:45.091Z,74.87
2019-01-04T16:05:15.038Z,75.05
2019-01-04T16:07:43.728Z,75.01
2019-01-04T16:10:11.920Z,75.04
2019-01-04T16:12:40.177Z,75.46
2019-01-04T16:15:12.321Z,75.50
2019-01-04T16:17:40.658Z,75.54
2019-01-04T16:20:11.316Z,75.51
2019-01-04T16:22:39.460Z,75.55
2019-01-04T16:25:08.654Z,75.92
2019-01-04T16:27:37.203Z,76.10
2019-01-04T16:30:09.200Z,76.13
2019-01-04T16:32:38.408Z,76.10
2019-01-04T16:35:06.987Z,76.01
2019-01-04T16:37:35.914Z,75.93
2019-01-04T16:40:04.968Z,75.91
2019-01-04T16:42:34.004Z,76.16
2019-01-04T16:45:02.094Z,76.14
2019-01-04T16:47:30.930Z,76.02
2019-01-04T16:50:02.648Z,75.89
2019-01-04T16:52:31.298Z,75.84
2019-01-04T16:54:59.523Z,75.88
2019-01-04T16:57:28.295Z,75.89
2019-01-04T16:59:57.406Z,75.93
2019-01-04T17:02:26.638Z,76.00
2019-01-04T17:04:58.321Z,76.13
2019-01-04T17:07:26.432Z,76.30
2019-01-04T17:09:54.676Z,76.27
2019-01-04T17:12:24.236Z,76.12
2019-01-04T17:14:52.652Z,75.89
2019-01-04T17:17:23.738Z,76.17
2019-01-04T17:19:52.572Z,76.01
2019-01-04T17:22:20.782Z,75.98
2019-01-04T17:24:48.810Z,76.12
2019-01-04T17:27:18.994Z,76.15
2019-01-04T17:29:46.933Z,75.92
2019-01-04T17:32:15.958Z,75.98
2019-01-04T17:34:44.267Z,75.92
2019-01-04T17:37:13.739Z,75.97
2019-01-04T17:39:41.775Z,76.03
2019-01-04T17:42:11.005Z,75.95
2019-01-04T17:44:39.145Z,75.96
2019-01-04T17:47:07.719Z,75.91
2019-01-04T17:49:36.926Z,75.88
2019-01-04T17:52:04.973Z,75.80
2019-01-04T17:54:33.119Z,75.71
2019-01-04T17:57:01.085Z,75.66
2019-01-04T17:59:29.855Z,75.59
2019-01-04T18:01:58.040Z,75.65
2019-01-04T18:04:29.132Z,75.61
2019-01-04T18:06:57.499Z,75.60
2019-01-04T18:09:25.571Z,75.68
2019-01-04T18:11:56.590Z,75.61
2019-01-04T18:14:27.872Z,75.44
2019-01-04T18:16:57.418Z,75.22
2019-01-04T18:19:26.852Z,75.12
2019-01-04T18:21:55.301Z,75.05
2019-01-04T18:24:25.107Z,74.97
2019-01-04T18:26:53.542Z,74.89
2019-01-04T18:29:22.082Z,74.89
2019-01-04T18:31:50.122Z,74.77
2019-01-04T18:34:18.659Z,74.77
2019-01-04T18:36:52.059Z,74.75
2019-01-04T18:39:24.235Z,74.65
2019-01-04T18:42:01.468Z,74.61
2019-01-04T18:44:30.696Z,74.39
2019-01-04T18:46:59.959Z,74.27
2019-01-04T18:49:34.447Z,74.07
2019-01-04T18:52:08.624Z,73.97
2019-01-04T18:54:38.644Z,73.72
2019-01-04T18:57:06.852Z,73.66
2019-01-04T18:59:42.415Z,73.69
2019-01-04T19:02:14.014Z,73.77
2019-01-04T19:04:44.533Z,73.88
2019-01-04T19:07:18.005Z,73.81
2019-01-04T19:09:46.678Z,73.72
2019-01-04T19:12:21.616Z,73.66
2019-01-04T19:14:59.953Z,73.69
2019-01-04T19:17:29.240Z,73.60
2019-01-04T19:20:15.650Z,73.50
2019-01-04T19:22:45.343Z,73.38
2019-01-04T19:25:16.429Z,73.28
2019-01-04T19:27:46.154Z,73.27
2019-01-04T19:30:21.169Z,73.22
2019-01-04T19:32:51.481Z,73.06
2019-01-04T19:35:19.516Z,73.05
2019-01-04T19:37:48.600Z,72.92
2019-01-04T19:40:19.851Z,72.99
2019-01-04T19:42:51.777Z,73.01
2019-01-04T19:45:21.657Z,73.06
2019-01-04T19:48:10.413Z,73.03
2019-01-04T19:50:42.927Z,72.98
2019-01-04T19:53:15.670Z,73.03
2019-01-04T19:55:44.047Z,72.95
2019-01-04T19:58:14.410Z,72.90
2019-01-04T20:00:43.155Z,72.83
2019-01-04T20:03:13.874Z,72.90
2019-01-04T20:06:37.805Z,72.90
2019-01-04T20:10:00.448Z,72.99
2019-01-04T20:13:41.870Z,73.05
2019-01-04T20:16:38.603Z,73.05
2019-01-04T20:19:29.995Z,73.27
2019-01-04T20:22:16.257Z,73.38
2019-01-04T20:25:04.427Z,73.65
2019-01-04T20:27:51.557Z,73.58
2019-01-04T20:30:41.953Z,73.57
2019-01-04T20:33:31.470Z,73.34
2019-01-04T20:36:20.188Z,73.09
2019-01-04T20:39:14.652Z,73.06
2019-01-04T20:42:02.343Z,73.24
2019-01-04T20:44:52.231Z,73.27
2019-01-04T20:47:59.918Z,73.52
2019-01-04T20:50:54.650Z,73.75
2019-01-04T20:53:46.106Z,74.08
2019-01-04T20:56:45.303Z,74.47
2019-01-04T20:59:33.945Z,74.59
2019-01-04T21:02:21.400Z,74.80
2019-01-04T21:05:12.155Z,74.99
2019-01-04T21:07:58.508Z,75.19
2019-01-04T21:10:46.232Z,75.30
2019-01-04T21:13:42.368Z,75.34
2019-01-04T21:16:30.182Z,75.36
2019-01-04T21:19:19.393Z,75.46
2019-01-04T21:22:07.186Z,75.62
2019-01-04T21:24:54.807Z,75.56
2019-01-04T21:27:50.507Z,75.37
2019-01-04T21:30:45.501Z,75.27
2019-01-04T21:33:46.059Z,75.24
2019-01-04T21:36:32.364Z,75.29
2019-01-04T21:39:24.413Z,75.54
2019-01-04T21:42:14.983Z,75.54
2019-01-04T21:45:20.796Z,75.57
2019-01-04T21:48:10.300Z,75.60
2019-01-04T21:51:01.617Z,75.52
2019-01-04T21:53:41.429Z,75.47
2019-01-04T21:56:27.673Z,75.68
2019-01-04T21:59:13.368Z,75.71
2019-01-04T22:02:04.293Z,75.66
2019-01-04T22:04:54.356Z,75.62
2019-01-04T22:07:45.972Z,75.60
2019-01-04T22:10:32.171Z,75.55
2019-01-04T22:13:21.204Z,75.46
2019-01-04T22:16:07.633Z,75.44
2019-01-04T22:19:12.017Z,75.61
2019-01-04T22:22:00.443Z,75.82
2019-01-04T22:24:51.134Z,76.02
2019-01-04T22:27:47.837Z,76.08
2019-01-04T22:30:27.763Z,76.14
2019-01-04T22:33:13.561Z,76.25
2019-01-04T22:36:06.343Z,76.48
2019-01-04T22:38:53.349Z,76.51
2019-01-04T22:41:39.633Z,76.50
2019-01-04T22:44:43.454Z,76.63
2019-01-04T22:47:37.231Z,76.85
2019-01-04T22:50:36.747Z,77.15
2019-01-04T22:53:34.273Z,77.37
2019-01-04T22:56:22.539Z,77.51
2019-01-04T22:59:11.218Z,77.91
2019-01-04T23:01:58.493Z,77.77
2019-01-04T23:04:45.728Z,77.60
2019-01-04T23:07:35.481Z,77.37
2019-01-04T23:10:29.551Z,77.42
2019-01-04T23:13:20.106Z,77.48
2019-01-04T23:16:07.937Z,77.63
2019-01-04T23:19:04.290Z,77.51
2019-01-04T23:22:14.663Z,77.32
2019-01-04T23:25:01.350Z,77.58
2019-01-04T23:27:56.437Z,77.48
2019-01-04T23:30:42.293Z,77.37
2019-01-04T23:33:42.968Z,77.36
2019-01-04T23:36:31.692Z,77.25
2019-01-04T23:39:18.050Z,77.37
2019-01-04T23:42:04.098Z,77.45
2019-01-04T23:44:51.798Z,77.56
2019-01-04T23:47:42.541Z,77.43
2019-01-04T23:50:48.409Z,77.01
2019-01-04T23:53:44.585Z,76.80
2019-01-04T23:56:32.147Z,76.72
2019-01-04T23:59:25.714Z,76.75
